createdAt,value
2023-03-24T06:01:08.420Z,25.00
2023-03-24T06:05:08.552Z,25.00
2023-03-24T06:09:08.743Z,0.00
2023-03-24T06:13:08.882Z,0.00
2023-03-24T06:17:08.946Z,0.00
2023-03-24T06:21:09.056Z,0.00
2023-03-24T06:25:09.182Z,0.00
2023-03-24T06:29:09.217Z,25.00
2023-03-24T06:33:09.311Z,25.40
2023-03-24T06:37:09.304Z,25.34
2023-03-24T06:41:09.431Z,25.37
2023-03-24T06:45:09.395Z,27.87
2023-03-24T06:49:09.588Z,28.79
2023-03-24T06:53:09.556Z,30.17
2023-03-24T06:57:09.778Z,34.05
2023-03-24T07:01:09.875Z,29.46
2023-03-24T07:05:09.892Z,31.91
2023-03-24T07:09:09.945Z,25.64
2023-03-24T07:13:10.052Z,28.91
2023-03-24T07:17:10.161Z,28.23
2023-03-24T07:21:10.377Z,26.89
2023-03-24T07:25:10.322Z,26.04
2023-03-24T07:29:10.431Z,26.91
2023-03-24T07:33:10.388Z,31.02
2023-03-24T07:37:10.516Z,30.78
2023-03-24T07:41:10.661Z,33.03
2023-03-24T07:45:10.674Z,32.98
2023-03-24T07:49:18.716Z,28.86
2023-03-24T07:53:11.662Z,30.11
2023-03-24T07:57:11.219Z,25.00
2023-03-24T08:01:10.593Z,29.99
2023-03-24T08:05:10.693Z,25.38
2023-03-24T08:09:10.715Z,27.63
2023-03-24T08:13:10.756Z,33.07
2023-03-24T08:17:10.823Z,31.80
2023-03-24T08:21:10.950Z,30.57
2023-03-24T08:25:12.868Z,28.10
2023-03-24T08:29:10.993Z,28.34
2023-03-24T08:33:12.462Z,29.59
2023-03-24T08:37:11.170Z,27.84
2023-03-24T08:41:11.222Z,28.07
2023-03-24T08:45:11.842Z,30.59
2023-03-24T08:49:11.353Z,26.82
2023-03-24T08:53:11.381Z,28.47
2023-03-24T08:57:11.454Z,29.05
2023-03-24T09:01:11.497Z,30.77
2023-03-24T09:05:11.566Z,41.07
2023-03-24T09:09:11.905Z,34.63
2023-03-24T09:13:11.656Z,37.51
2023-03-24T09:17:11.891Z,29.10
2023-03-24T09:21:11.651Z,32.58
2023-03-24T09:25:11.717Z,43.81
2023-03-24T09:29:11.718Z,46.24
2023-03-24T09:33:11.730Z,57.32
2023-03-24T09:37:11.698Z,83.00
2023-03-24T09:41:11.753Z,85.85
2023-03-24T09:45:11.819Z,94.24
2023-03-24T09:49:11.812Z,96.34
2023-03-24T09:53:13.197Z,102.83
2023-03-24T09:57:12.687Z,111.03
2023-03-24T10:01:12.017Z,103.71
2023-03-24T10:05:11.817Z,102.76
2023-03-24T10:09:11.978Z,108.54
2023-03-24T10:13:12.004Z,112.56
2023-03-24T10:17:11.976Z,118.15
2023-03-24T10:21:12.534Z,119.88
2023-03-24T10:25:12.885Z,117.11
2023-03-24T10:29:12.142Z,119.78
2023-03-24T10:33:12.186Z,122.75
2023-03-24T10:37:12.288Z,127.74
2023-03-24T10:41:12.252Z,128.71
2023-03-24T10:45:12.327Z,129.68
2023-03-24T10:49:12.547Z,136.92
2023-03-24T10:53:12.408Z,136.26
2023-03-24T10:57:12.539Z,136.01
2023-03-24T11:01:12.702Z,136.44
2023-03-24T11:05:12.818Z,136.34
2023-03-24T11:09:12.866Z,141.95
2023-03-24T11:13:12.962Z,140.86
2023-03-24T11:17:13.061Z,145.91
2023-03-24T11:21:13.496Z,141.41
2023-03-24T11:25:13.347Z,137.83
2023-03-24T11:29:13.580Z,141.06
2023-03-24T11:33:13.504Z,141.38
2023-03-24T11:37:13.468Z,145.74
2023-03-24T11:41:13.434Z,152.60
2023-03-24T11:45:13.367Z,152.79
2023-03-24T11:49:13.389Z,156.03
2023-03-24T11:53:13.352Z,160.74
2023-03-24T11:57:13.271Z,159.44
2023-03-24T12:01:13.259Z,162.89
2023-03-24T12:05:13.275Z,159.19
2023-03-24T12:09:13.173Z,158.61
2023-03-24T12:13:22.155Z,159.91
2023-03-24T12:17:14.280Z,163.69
2023-03-24T12:21:13.217Z,162.17
2023-03-24T12:25:13.464Z,165.16
2023-03-24T12:29:13.691Z,164.06
2023-03-24T12:33:13.942Z,165.52
2023-03-24T12:37:13.879Z,166.82
2023-03-24T12:41:13.854Z,170.00
2023-03-24T12:45:13.779Z,170.22
2023-03-24T12:49:13.732Z,169.59
2023-03-24T12:53:14.276Z,171.52
2023-03-24T12:57:13.677Z,172.70
2023-03-24T13:01:13.729Z,171.20
2023-03-24T13:05:14.592Z,171.78
2023-03-24T13:09:13.691Z,169.56
2023-03-24T13:13:13.809Z,155.15
2023-03-24T13:17:20.856Z,145.02
2023-03-24T13:21:13.954Z,140.36
2023-03-24T13:25:13.891Z,134.24
2023-03-24T13:29:13.971Z,191.42
2023-03-24T13:33:13.945Z,247.61
2023-03-24T13:37:13.779Z,220.10
2023-03-24T13:41:13.866Z,206.51
2023-03-24T13:45:13.688Z,196.99
2023-03-24T13:49:13.651Z,183.23
2023-03-24T13:53:13.653Z,173.74
2023-03-24T13:57:13.800Z,168.64
2023-03-24T14:01:13.900Z,160.41
2023-03-24T14:05:14.003Z,152.22
2023-03-24T14:09:14.085Z,147.01
2023-03-24T14:13:14.270Z,144.99
2023-03-24T14:17:14.506Z,136.86
2023-03-24T14:21:14.527Z,128.50
2023-03-24T14:25:14.609Z,123.49
2023-03-24T14:29:14.764Z,126.22
2023-03-24T14:33:14.882Z,120.85
2023-03-24T14:37:15.207Z,117.11
2023-03-24T14:41:15.306Z,112.12
2023-03-24T14:45:15.345Z,106.61
2023-03-24T14:49:15.551Z,104.53
2023-03-24T14:53:15.590Z,104.74
2023-03-24T14:57:15.920Z,102.96
2023-03-24T15:01:15.980Z,101.62
2023-03-24T15:05:16.253Z,101.73
2023-03-24T15:09:16.647Z,108.05
2023-03-24T15:13:17.035Z,115.90
2023-03-24T15:17:16.748Z,111.09
2023-03-24T15:21:16.870Z,116.78
2023-03-24T15:25:17.080Z,122.64
2023-03-24T15:29:17.276Z,117.27
2023-03-24T15:33:17.517Z,121.69
2023-03-24T15:37:17.728Z,125.47
2023-03-24T15:41:17.874Z,124.43
2023-03-24T15:45:18.029Z,125.83
2023-03-24T15:49:18.184Z,125.40
2023-03-24T15:53:18.413Z,128.56
2023-03-24T15:57:18.558Z,129.71
2023-03-24T16:01:18.767Z,130.06
2023-03-24T16:05:18.926Z,131.82
2023-03-24T16:09:19.224Z,130.47
2023-03-24T16:13:20.078Z,132.38
2023-03-24T16:17:19.448Z,133.11
2023-03-24T16:21:19.800Z,133.08
2023-03-24T16:25:19.897Z,133.26
2023-03-24T16:29:20.261Z,135.22
2023-03-24T16:33:20.400Z,134.44
2023-03-24T16:37:20.560Z,136.36
2023-03-24T16:41:20.846Z,137.21
2023-03-24T16:45:20.972Z,135.90
2023-03-24T16:49:21.208Z,133.68
2023-03-24T16:53:21.567Z,137.73
2023-03-24T16:57:21.647Z,138.96
2023-03-24T17:01:21.625Z,138.95
2023-03-24T17:05:21.597Z,137.45
2023-03-24T17:09:21.584Z,139.25
2023-03-24T17:13:21.474Z,137.39
2023-03-24T17:17:21.488Z,139.40
2023-03-24T17:21:21.392Z,141.75
2023-03-24T17:25:21.431Z,141.93
2023-03-24T17:29:21.328Z,144.45
2023-03-24T17:33:21.276Z,143.26
2023-03-24T17:37:21.223Z,141.19
2023-03-24T17:41:21.208Z,139.82
2023-03-24T17:45:21.433Z,145.37
2023-03-24T17:49:22.595Z,146.04
2023-03-24T17:53:21.865Z,143.35
2023-03-24T17:57:22.082Z,142.72
